createdAt,value
2022-08-29T00:01:32.972Z,17.62
2022-08-29T00:04:01.218Z,17.52
2022-08-29T00:06:29.248Z,17.54
2022-08-29T00:08:58.459Z,17.51
2022-08-29T00:11:26.198Z,17.43
2022-08-29T00:13:53.887Z,17.42
2022-08-29T00:16:21.698Z,17.37
2022-08-29T00:18:49.463Z,17.30
2022-08-29T00:21:17.488Z,17.13
2022-08-29T00:23:46.052Z,17.28
2022-08-29T00:26:15.204Z,17.27
2022-08-29T00:28:43.005Z,17.16
2022-08-29T00:31:10.888Z,17.24
2022-08-29T00:33:39.343Z,17.21
2022-08-29T00:36:07.549Z,17.18
2022-08-29T00:38:36.322Z,17.16
2022-08-29T00:41:05.353Z,17.12
2022-08-29T00:43:37.248Z,17.04
2022-08-29T00:46:26.568Z,16.99
2022-08-29T00:48:57.195Z,16.93
2022-08-29T00:51:25.437Z,16.84
2022-08-29T00:53:57.407Z,16.87
2022-08-29T00:56:26.049Z,16.86
2022-08-29T00:59:00.303Z,16.72
2022-08-29T01:01:28.255Z,16.78
2022-08-29T01:03:56.539Z,16.74
2022-08-29T01:06:27.478Z,16.76
2022-08-29T01:08:57.241Z,16.82
2022-08-29T01:11:46.425Z,16.69
2022-08-29T01:14:16.311Z,16.66
2022-08-29T01:16:44.644Z,16.62
2022-08-29T01:19:22.289Z,16.52
2022-08-29T01:21:58.036Z,16.44
2022-08-29T01:24:39.153Z,16.40
2022-08-29T01:27:08.359Z,16.47
2022-08-29T01:29:36.302Z,16.36
2022-08-29T01:32:04.573Z,16.33
2022-08-29T01:34:32.327Z,16.41
2022-08-29T01:37:02.599Z,16.43
2022-08-29T01:39:33.841Z,16.40
2022-08-29T01:42:03.849Z,16.43
2022-08-29T01:44:32.285Z,16.45
2022-08-29T01:47:03.287Z,16.45
2022-08-29T01:49:32.241Z,16.52
2022-08-29T01:52:00.084Z,16.56
2022-08-29T01:54:31.528Z,16.47
2022-08-29T01:56:59.317Z,16.58
2022-08-29T01:59:29.141Z,16.42
2022-08-29T02:02:01.196Z,16.45
2022-08-29T02:04:29.120Z,16.42
2022-08-29T02:06:56.967Z,16.47
2022-08-29T02:09:25.199Z,16.41
2022-08-29T02:11:56.033Z,16.29
2022-08-29T02:14:24.410Z,16.38
2022-08-29T02:16:52.502Z,16.40
2022-08-29T02:19:20.852Z,16.37
2022-08-29T02:21:48.736Z,16.41
2022-08-29T02:24:26.122Z,16.40
2022-08-29T02:26:56.923Z,16.37
2022-08-29T02:29:25.813Z,16.35
2022-08-29T02:31:58.749Z,16.36
2022-08-29T02:34:30.944Z,16.39
2022-08-29T02:36:59.257Z,16.52
2022-08-29T02:39:27.458Z,16.61
2022-08-29T02:41:56.628Z,16.62
2022-08-29T02:44:24.440Z,16.49
2022-08-29T02:46:52.242Z,16.47
2022-08-29T02:49:20.173Z,16.45
2022-08-29T02:51:49.540Z,16.44
2022-08-29T02:54:17.274Z,16.42
2022-08-29T02:56:44.990Z,16.39
2022-08-29T02:59:14.744Z,16.36
2022-08-29T03:01:42.533Z,16.29
2022-08-29T03:04:10.331Z,16.23
2022-08-29T03:06:38.058Z,16.25
2022-08-29T03:09:05.920Z,16.24
2022-08-29T03:11:33.635Z,16.10
2022-08-29T03:14:02.111Z,16.19
2022-08-29T03:16:31.571Z,16.15
2022-08-29T03:18:59.401Z,16.12
2022-08-29T03:21:28.905Z,16.07
2022-08-29T03:23:57.397Z,16.10
2022-08-29T03:26:25.437Z,16.08
2022-08-29T03:28:53.240Z,16.06
2022-08-29T03:31:22.067Z,16.06
2022-08-29T03:33:51.181Z,16.10
2022-08-29T03:36:18.952Z,15.94
2022-08-29T03:38:47.736Z,15.92
2022-08-29T03:41:21.643Z,15.84
2022-08-29T03:43:49.402Z,15.81
2022-08-29T03:46:17.222Z,15.76
2022-08-29T03:48:45.096Z,15.79
2022-08-29T03:51:14.187Z,15.86
2022-08-29T03:53:41.964Z,15.79
2022-08-29T03:56:11.768Z,15.65
2022-08-29T03:58:51.938Z,15.70
2022-08-29T04:01:22.815Z,15.73
2022-08-29T04:03:51.262Z,15.72
2022-08-29T04:06:20.863Z,15.78
2022-08-29T04:08:49.034Z,15.75
2022-08-29T04:11:18.174Z,15.72
2022-08-29T04:13:46.494Z,15.76
2022-08-29T04:16:16.567Z,15.74
2022-08-29T04:18:44.858Z,15.67
2022-08-29T04:21:13.579Z,15.73
2022-08-29T04:23:43.531Z,15.71
2022-08-29T04:26:35.170Z,15.67
2022-08-29T04:29:03.762Z,15.71
2022-08-29T04:31:31.592Z,15.69
2022-08-29T04:33:59.390Z,15.65
2022-08-29T04:36:28.080Z,15.60
2022-08-29T04:38:57.874Z,15.57
2022-08-29T04:41:25.587Z,15.57
2022-08-29T04:43:53.605Z,15.55
2022-08-29T04:46:24.563Z,15.60
2022-08-29T04:48:53.056Z,15.58
2022-08-29T04:51:21.317Z,15.57
2022-08-29T04:53:50.717Z,15.47
2022-08-29T04:56:21.470Z,15.66
2022-08-29T04:58:50.629Z,15.69
2022-08-29T05:01:22.027Z,15.60
2022-08-29T05:03:50.269Z,15.77
2022-08-29T05:06:22.633Z,15.84
2022-08-29T05:08:55.117Z,15.92
2022-08-29T05:11:31.354Z,16.00
2022-08-29T05:14:00.286Z,16.12
2022-08-29T05:16:29.861Z,16.15
2022-08-29T05:18:58.611Z,16.26
2022-08-29T05:21:28.396Z,16.20
2022-08-29T05:23:57.400Z,16.29
2022-08-29T05:26:25.653Z,16.40
2022-08-29T05:28:54.779Z,16.45
2022-08-29T05:31:23.597Z,16.58
2022-08-29T05:33:51.781Z,16.69
2022-08-29T05:36:19.635Z,16.81
2022-08-29T05:38:47.524Z,16.93
2022-08-29T05:41:15.497Z,16.96
2022-08-29T05:43:43.233Z,16.95
2022-08-29T05:46:12.451Z,17.11
2022-08-29T05:48:41.710Z,17.23
2022-08-29T05:51:16.313Z,17.27
2022-08-29T05:53:44.494Z,17.46
2022-08-29T05:56:12.826Z,17.65
2022-08-29T05:58:40.571Z,17.79
2022-08-29T06:01:08.278Z,17.85
2022-08-29T06:03:38.673Z,17.99
2022-08-29T06:06:08.541Z,18.17
2022-08-29T06:08:36.286Z,18.34
2022-08-29T06:11:04.276Z,18.32
2022-08-29T06:13:32.001Z,18.29
2022-08-29T06:15:59.880Z,18.54
2022-08-29T06:18:35.495Z,18.94
2022-08-29T06:21:06.935Z,18.81
2022-08-29T06:23:35.149Z,19.05
2022-08-29T06:26:03.658Z,19.06
2022-08-29T06:28:32.313Z,19.17
2022-08-29T06:31:06.912Z,19.57
2022-08-29T06:33:35.248Z,20.00
2022-08-29T06:36:04.131Z,19.46
2022-08-29T06:38:33.490Z,19.72
2022-08-29T06:41:05.012Z,19.80
2022-08-29T06:43:33.020Z,20.00
2022-08-29T06:46:01.060Z,20.24
2022-08-29T06:48:29.676Z,20.27
2022-08-29T06:50:57.600Z,20.59
2022-08-29T06:53:32.552Z,20.53
2022-08-29T06:56:06.802Z,20.86
2022-08-29T06:58:39.440Z,20.91
2022-08-29T07:01:08.578Z,21.15
2022-08-29T07:03:36.479Z,21.32
2022-08-29T07:06:04.309Z,21.89
2022-08-29T07:08:32.414Z,22.21
2022-08-29T07:11:00.414Z,22.45
2022-08-29T07:13:29.936Z,23.34
2022-08-29T07:15:58.091Z,23.52
2022-08-29T07:18:25.887Z,23.82
2022-08-29T07:20:54.565Z,23.95
2022-08-29T07:23:23.126Z,24.00
2022-08-29T07:25:51.886Z,23.46
2022-08-29T07:28:19.571Z,24.02
2022-08-29T07:30:48.742Z,23.30
2022-08-29T07:33:16.752Z,23.24
2022-08-29T07:35:44.541Z,23.60
2022-08-29T07:38:12.285Z,23.18
2022-08-29T07:40:40.150Z,23.28
2022-08-29T07:43:07.977Z,23.73
2022-08-29T07:45:38.717Z,23.43
2022-08-29T07:48:10.303Z,23.48
2022-08-29T07:50:38.067Z,23.71
2022-08-29T07:53:05.780Z,23.20
2022-08-29T07:55:33.622Z,24.20
2022-08-29T07:58:01.334Z,24.38
2022-08-29T08:00:29.244Z,23.26
2022-08-29T08:02:56.973Z,23.64
2022-08-29T08:05:26.121Z,23.60
2022-08-29T08:07:55.543Z,23.54
2022-08-29T08:10:24.627Z,23.58
2022-08-29T08:12:52.485Z,23.77
2022-08-29T08:15:21.917Z,23.91
2022-08-29T08:17:49.674Z,23.99
2022-08-29T08:20:17.402Z,24.68
2022-08-29T08:22:46.487Z,23.94
2022-08-29T08:25:14.293Z,24.30
2022-08-29T08:27:43.597Z,25.16
2022-08-29T08:30:12.466Z,26.06
2022-08-29T08:32:44.346Z,25.93
2022-08-29T08:35:16.197Z,25.67
2022-08-29T08:37:44.435Z,26.08
2022-08-29T08:40:21.102Z,25.21
2022-08-29T08:42:50.550Z,25.64
2022-08-29T08:45:20.383Z,26.81
2022-08-29T08:47:51.971Z,26.72
2022-08-29T08:50:26.325Z,27.53
2022-08-29T08:52:59.216Z,25.78
2022-08-29T08:55:40.521Z,26.57
2022-08-29T08:58:16.761Z,27.20
2022-08-29T09:00:50.176Z,26.79
2022-08-29T09:04:00.181Z,27.10
2022-08-29T09:06:46.832Z,26.96
2022-08-29T09:09:27.417Z,27.39
2022-08-29T09:12:05.348Z,26.82
2022-08-29T09:14:47.936Z,27.76
2022-08-29T09:17:21.261Z,27.75
2022-08-29T09:19:50.858Z,27.62
2022-08-29T09:22:26.635Z,27.62
2022-08-29T09:25:02.684Z,27.82
2022-08-29T09:27:34.906Z,27.59
2022-08-29T09:30:08.733Z,27.21
2022-08-29T09:32:53.650Z,27.08
2022-08-29T09:35:24.775Z,27.36
2022-08-29T09:38:02.041Z,28.80
2022-08-29T09:40:50.703Z,28.10
2022-08-29T09:43:26.683Z,29.28
2022-08-29T09:46:13.125Z,28.90
2022-08-29T09:48:42.782Z,28.73
2022-08-29T09:51:14.276Z,28.56
2022-08-29T09:53:42.727Z,29.12
2022-08-29T09:56:18.273Z,29.69
2022-08-29T09:58:59.253Z,29.75
2022-08-29T10:01:28.628Z,28.85
2022-08-29T10:04:00.159Z,30.00
2022-08-29T10:06:32.122Z,30.40
2022-08-29T10:09:04.740Z,30.49
2022-08-29T10:11:39.129Z,29.68
2022-08-29T10:14:14.749Z,30.00
2022-08-29T10:16:50.505Z,30.26
2022-08-29T10:19:22.393Z,30.12
2022-08-29T10:22:00.152Z,30.74
2022-08-29T10:24:49.051Z,30.96
2022-08-29T10:27:28.423Z,30.13
2022-08-29T10:30:08.641Z,30.13
2022-08-29T10:32:48.461Z,31.74
2022-08-29T10:35:20.055Z,31.08
2022-08-29T10:37:57.335Z,32.03
2022-08-29T10:40:29.240Z,31.74
2022-08-29T10:43:16.822Z,31.80
2022-08-29T10:45:58.566Z,31.26
2022-08-29T10:48:31.343Z,30.62
2022-08-29T10:51:17.485Z,30.33
2022-08-29T10:53:50.176Z,31.38
2022-08-29T10:56:23.876Z,31.29
2022-08-29T10:59:01.787Z,31.63
2022-08-29T11:01:37.901Z,30.90
2022-08-29T11:04:18.231Z,29.10
2022-08-29T11:06:53.461Z,30.87
2022-08-29T11:09:26.353Z,29.94
2022-08-29T11:12:04.715Z,29.56
2022-08-29T11:14:37.303Z,31.10
2022-08-29T11:17:10.276Z,31.50
2022-08-29T11:19:57.590Z,31.54
2022-08-29T11:22:30.248Z,32.41
2022-08-29T11:25:04.766Z,32.82
2022-08-29T11:27:42.282Z,33.20
2022-08-29T11:30:17.651Z,33.33
2022-08-29T11:32:58.908Z,35.17
2022-08-29T11:35:30.063Z,34.28
2022-08-29T11:38:43.856Z,33.59
2022-08-29T11:41:27.022Z,34.07
2022-08-29T11:43:59.768Z,37.24
2022-08-29T11:46:38.701Z,36.95
2022-08-29T11:49:40.209Z,34.02
2022-08-29T11:52:21.805Z,36.15
2022-08-29T11:55:07.268Z,36.99
2022-08-29T11:58:11.748Z,36.69
2022-08-29T12:00:52.222Z,35.64
2022-08-29T12:03:57.220Z,35.58
2022-08-29T12:06:32.165Z,35.77
2022-08-29T12:09:23.056Z,36.92
2022-08-29T12:12:14.264Z,37.16
2022-08-29T12:14:44.332Z,37.00
2022-08-29T12:18:00.925Z,36.43
2022-08-29T12:20:44.384Z,33.12
2022-08-29T12:23:28.878Z,35.54
2022-08-29T12:26:21.632Z,35.39
2022-08-29T12:28:57.441Z,35.55
2022-08-29T12:32:17.886Z,35.72
2022-08-29T12:34:52.645Z,34.84
2022-08-29T12:37:33.545Z,35.21
2022-08-29T12:40:32.190Z,34.78
2022-08-29T12:43:29.399Z,38.55
2022-08-29T12:45:57.373Z,37.87
2022-08-29T12:48:27.880Z,38.00
2022-08-29T12:50:55.699Z,36.58
2022-08-29T12:53:26.898Z,34.90
2022-08-29T12:55:57.523Z,36.23
2022-08-29T12:58:36.462Z,37.22
2022-08-29T13:01:06.190Z,35.86
2022-08-29T13:03:34.295Z,35.90
2022-08-29T13:06:08.500Z,35.35
2022-08-29T13:08:41.267Z,36.15
2022-08-29T13:11:12.714Z,36.23
2022-08-29T13:13:41.084Z,38.37
2022-08-29T13:16:22.637Z,38.42
2022-08-29T13:19:09.693Z,37.22
2022-08-29T13:21:38.099Z,36.72
2022-08-29T13:24:11.811Z,34.77
2022-08-29T13:26:50.624Z,35.36
2022-08-29T13:29:37.044Z,33.63
2022-08-29T13:32:23.852Z,33.75
2022-08-29T13:35:07.946Z,32.37
2022-08-29T13:37:38.128Z,31.01
2022-08-29T13:40:33.045Z,30.38
2022-08-29T13:43:03.152Z,32.34
2022-08-29T13:45:31.238Z,34.16
2022-08-29T13:48:13.616Z,35.54
2022-08-29T13:50:42.018Z,34.00
2022-08-29T13:53:09.909Z,34.87
2022-08-29T13:55:37.850Z,35.61
2022-08-29T13:58:06.926Z,32.40
2022-08-29T14:00:34.802Z,34.44
2022-08-29T14:03:05.351Z,35.11
2022-08-29T14:05:35.112Z,35.45
2022-08-29T14:08:03.059Z,35.31
2022-08-29T14:10:30.769Z,36.18
2022-08-29T14:12:58.483Z,33.67
2022-08-29T14:15:27.577Z,33.52
2022-08-29T14:17:55.323Z,34.09
2022-08-29T14:20:23.125Z,35.29
2022-08-29T14:22:50.866Z,33.53
2022-08-29T14:25:21.004Z,35.27
2022-08-29T14:27:49.693Z,33.95
2022-08-29T14:30:19.916Z,35.42
2022-08-29T14:32:49.001Z,36.36
2022-08-29T14:35:26.192Z,36.19
2022-08-29T14:37:56.150Z,35.74
2022-08-29T14:40:25.666Z,34.36
2022-08-29T14:42:53.809Z,33.43
2022-08-29T14:45:21.836Z,31.37
2022-08-29T14:47:51.275Z,29.77
2022-08-29T14:50:19.029Z,29.67
2022-08-29T14:52:46.909Z,29.50
2022-08-29T14:55:14.711Z,29.10
2022-08-29T14:57:43.153Z,28.66
2022-08-29T15:00:13.956Z,28.35
2022-08-29T15:02:42.078Z,28.33
2022-08-29T15:05:12.087Z,28.22
2022-08-29T15:07:40.039Z,27.89
2022-08-29T15:10:09.228Z,27.41
2022-08-29T15:12:37.239Z,28.03
2022-08-29T15:15:05.505Z,27.89
2022-08-29T15:17:33.276Z,27.96
2022-08-29T15:20:34.638Z,27.94
2022-08-29T15:22:50.924Z,28.48
2022-08-29T15:25:18.833Z,28.98
2022-08-29T15:27:47.592Z,29.00
2022-08-29T15:30:20.551Z,29.54
2022-08-29T15:32:49.168Z,30.07
2022-08-29T15:35:17.403Z,30.59
2022-08-29T15:37:45.295Z,31.29
2022-08-29T15:40:15.458Z,30.64
2022-08-29T15:42:43.245Z,31.92
2022-08-29T15:45:12.119Z,32.37
2022-08-29T15:47:39.887Z,32.54
2022-08-29T15:50:09.646Z,32.14
2022-08-29T15:52:38.468Z,32.56
2022-08-29T15:55:07.446Z,33.62
2022-08-29T15:57:51.115Z,33.37
2022-08-29T16:00:30.774Z,34.05
2022-08-29T16:03:01.079Z,33.08
2022-08-29T16:05:29.372Z,33.81
2022-08-29T16:07:57.367Z,33.82
2022-08-29T16:10:25.195Z,33.23
2022-08-29T16:12:54.398Z,32.84
2022-08-29T16:15:22.215Z,33.13
2022-08-29T16:17:50.000Z,30.86
2022-08-29T16:20:17.757Z,29.92
2022-08-29T16:22:45.671Z,29.28
2022-08-29T16:25:14.990Z,29.22
2022-08-29T16:27:42.971Z,29.41
2022-08-29T16:30:13.031Z,28.93
2022-08-29T16:32:41.574Z,28.51
2022-08-29T16:35:10.748Z,28.19
2022-08-29T16:37:38.612Z,27.30
2022-08-29T16:40:08.038Z,27.06
2022-08-29T16:42:37.473Z,26.91
2022-08-29T16:45:06.510Z,25.75
2022-08-29T16:47:35.678Z,25.24
2022-08-29T16:50:03.830Z,24.58
2022-08-29T16:52:31.600Z,24.56
2022-08-29T16:54:59.485Z,24.58
2022-08-29T16:57:27.240Z,24.60
2022-08-29T16:59:55.363Z,24.46
2022-08-29T17:02:23.140Z,24.40
2022-08-29T17:04:52.254Z,24.76
2022-08-29T17:07:20.029Z,24.99
2022-08-29T17:09:46.649Z,24.81
2022-08-29T17:12:13.305Z,24.86
2022-08-29T17:14:39.953Z,24.86
2022-08-29T17:17:07.782Z,24.83
2022-08-29T17:19:35.591Z,24.78
2022-08-29T17:22:04.782Z,24.61
2022-08-29T17:24:32.511Z,24.53
2022-08-29T17:27:00.244Z,24.34
2022-08-29T17:29:27.984Z,23.90
2022-08-29T17:31:55.712Z,23.61
2022-08-29T17:34:23.795Z,23.69
2022-08-29T17:36:51.561Z,23.47
2022-08-29T17:39:21.501Z,23.60
2022-08-29T17:41:50.983Z,23.39
2022-08-29T17:44:19.329Z,23.32
2022-08-29T17:46:47.230Z,23.18
2022-08-29T17:49:15.092Z,23.23
2022-08-29T17:51:43.110Z,23.17
2022-08-29T17:54:14.773Z,23.03
2022-08-29T17:56:46.329Z,22.90
2022-08-29T17:59:14.779Z,22.78
2022-08-29T18:01:42.780Z,22.76
2022-08-29T18:04:11.329Z,22.65
2022-08-29T18:06:39.370Z,22.62
2022-08-29T18:09:08.255Z,22.37
2022-08-29T18:11:38.536Z,22.41
2022-08-29T18:14:08.443Z,22.29
2022-08-29T18:16:36.740Z,22.29
2022-08-29T18:19:05.242Z,22.11
2022-08-29T18:21:33.379Z,22.09
2022-08-29T18:24:01.519Z,22.08
2022-08-29T18:26:29.526Z,21.92
2022-08-29T18:28:57.297Z,21.88
2022-08-29T18:31:26.460Z,21.84
2022-08-29T18:34:00.440Z,21.95
2022-08-29T18:36:29.216Z,21.81
2022-08-29T18:38:56.958Z,21.71
2022-08-29T18:41:24.680Z,21.65
2022-08-29T18:43:52.445Z,21.60
2022-08-29T18:46:21.015Z,21.56
2022-08-29T18:48:50.180Z,21.46
2022-08-29T18:51:18.556Z,21.37
2022-08-29T18:53:47.023Z,21.41
2022-08-29T18:56:14.767Z,21.30
2022-08-29T18:58:44.247Z,21.26
2022-08-29T19:01:13.981Z,21.06
2022-08-29T19:03:42.266Z,21.16
2022-08-29T19:06:12.300Z,21.24
2022-08-29T19:08:40.511Z,21.11
2022-08-29T19:11:11.168Z,21.06
2022-08-29T19:13:39.813Z,21.08
2022-08-29T19:16:09.798Z,21.02
2022-08-29T19:18:38.169Z,21.05
2022-08-29T19:21:06.535Z,20.99
2022-08-29T19:23:38.192Z,20.90
2022-08-29T19:26:08.995Z,20.97
2022-08-29T19:28:37.487Z,20.96
2022-08-29T19:31:06.501Z,20.98
2022-08-29T19:33:35.269Z,21.03
2022-08-29T19:36:04.219Z,21.04
2022-08-29T19:38:32.164Z,21.00
2022-08-29T19:41:01.346Z,21.03
2022-08-29T19:43:33.182Z,20.87
2022-08-29T19:46:02.820Z,20.85
2022-08-29T19:48:30.611Z,20.79
2022-08-29T19:50:58.331Z,20.82
2022-08-29T19:53:27.133Z,20.80
2022-08-29T19:55:56.587Z,20.65
2022-08-29T19:58:31.367Z,20.80
2022-08-29T20:01:01.479Z,20.75
2022-08-29T20:03:29.938Z,20.72
2022-08-29T20:05:59.445Z,20.68
2022-08-29T20:08:27.489Z,20.59
2022-08-29T20:10:57.036Z,20.55
2022-08-29T20:13:28.291Z,20.51
2022-08-29T20:16:02.202Z,20.51
2022-08-29T20:18:30.037Z,20.48
2022-08-29T20:20:57.805Z,20.43
2022-08-29T20:23:25.575Z,20.48
2022-08-29T20:25:53.348Z,20.50
2022-08-29T20:28:21.099Z,20.48
2022-08-29T20:30:50.161Z,20.50
2022-08-29T20:33:17.890Z,20.57
2022-08-29T20:36:03.518Z,20.65
2022-08-29T20:38:33.267Z,20.64
2022-08-29T20:41:01.170Z,20.59
2022-08-29T20:43:29.582Z,20.54
2022-08-29T20:45:59.990Z,20.42
2022-08-29T20:48:31.381Z,20.42
2022-08-29T20:51:00.369Z,20.44
2022-08-29T20:53:31.960Z,20.33
2022-08-29T20:56:00.826Z,20.30
2022-08-29T20:58:30.204Z,20.13
2022-08-29T21:01:01.318Z,20.18
2022-08-29T21:03:46.368Z,20.09
2022-08-29T21:06:14.155Z,20.17
2022-08-29T21:08:42.251Z,20.17
2022-08-29T21:11:10.244Z,19.97
2022-08-29T21:13:44.783Z,20.03
2022-08-29T21:16:13.949Z,19.96
2022-08-29T21:18:42.290Z,19.82
2022-08-29T21:21:13.450Z,19.87
2022-08-29T21:23:41.774Z,19.73
2022-08-29T21:26:10.801Z,19.71
2022-08-29T21:28:39.614Z,19.80
2022-08-29T21:31:09.796Z,19.69
2022-08-29T21:33:39.442Z,19.78
2022-08-29T21:36:11.858Z,19.71
2022-08-29T21:38:40.752Z,19.70
2022-08-29T21:41:10.021Z,19.59
2022-08-29T21:43:37.975Z,19.58
2022-08-29T21:46:14.821Z,19.52
2022-08-29T21:48:44.191Z,19.44
2022-08-29T21:51:13.082Z,19.38
2022-08-29T21:53:41.711Z,19.40
2022-08-29T21:56:09.776Z,19.15
2022-08-29T21:58:37.502Z,19.30
2022-08-29T22:01:06.045Z,19.17
2022-08-29T22:03:33.847Z,19.16
2022-08-29T22:06:04.052Z,19.25
2022-08-29T22:08:31.859Z,19.22
2022-08-29T22:11:00.497Z,19.26
2022-08-29T22:13:28.698Z,19.24
2022-08-29T22:16:14.213Z,19.29
2022-08-29T22:18:42.017Z,19.34
2022-08-29T22:21:15.161Z,19.46
2022-08-29T22:23:44.539Z,19.43
2022-08-29T22:26:12.462Z,19.40
2022-08-29T22:28:40.940Z,19.29
2022-08-29T22:31:09.070Z,19.19
2022-08-29T22:33:36.900Z,19.43
2022-08-29T22:36:05.341Z,19.36
2022-08-29T22:38:37.523Z,19.36
2022-08-29T22:41:08.421Z,19.29
2022-08-29T22:43:36.516Z,19.18
2022-08-29T22:46:10.219Z,19.08
2022-08-29T22:48:38.990Z,19.15
2022-08-29T22:51:11.869Z,19.26
2022-08-29T22:53:41.095Z,18.99
2022-08-29T22:56:09.136Z,18.73
2022-08-29T22:58:37.997Z,18.83
2022-08-29T23:01:07.540Z,18.92
2022-08-29T23:03:35.422Z,18.82
2022-08-29T23:06:03.278Z,18.92
2022-08-29T23:08:31.034Z,18.94
2022-08-29T23:11:00.187Z,18.99
2022-08-29T23:13:27.963Z,19.06
2022-08-29T23:15:58.911Z,19.08
2022-08-29T23:18:29.240Z,19.12
2022-08-29T23:20:57.169Z,19.12
2022-08-29T23:23:24.968Z,19.09
2022-08-29T23:25:53.490Z,19.03
2022-08-29T23:28:22.597Z,18.99
2022-08-29T23:30:53.083Z,18.93
2022-08-29T23:33:21.112Z,19.00
2022-08-29T23:35:48.908Z,18.89
2022-08-29T23:38:16.651Z,18.97
2022-08-29T23:40:44.902Z,18.94
2022-08-29T23:43:13.393Z,18.72
2022-08-29T23:45:42.533Z,18.93
2022-08-29T23:48:10.360Z,18.88
2022-08-29T23:50:38.146Z,18.71
2022-08-29T23:53:05.901Z,18.77
2022-08-29T23:55:33.891Z,18.79
2022-08-29T23:58:01.685Z,18.64
